Rechercher aéroport 
image banner adimage banner adimage banner ad
image banner ad

90CL - Diamond M Ranch

Situé à Elk Creek, United States

ICAO - 90CL, IATA -

Données fournies par Airmate  

Information générale

Coordonnées: N39°34'20" W122°36'34"
Élévation : 1296 feet MSL.
Variation magnétique : 17° East
Voir autres Aéroports à California

Données opérationnelles

Special qualification required
Heure actuelle UTC:
Heure actuelle locale:
Météo à : KCIC - Chico Muni ( 69 km )
METAR: KCIC 262150Z 16012KT 25SM BKN180 30/06 A2983 RMK FUHZ ALQDS
Voir NOTAMs / SUP AIP / TFR affectant cet aéroport [VIEW]
Fréquences de communication: [VIEW]

Pistes:

Identifiant RWYQFULongueur (ft)Largeur (ft)SurfaceLDA (ft)
09240075GRASS
27240075GRASS

Coordonnées de l'aéroport

Adresse: Elk Creek United States

Vue satellite de 90CL